createdAt,value
2024-03-03T00:01:34.170Z,9.60
2024-03-03T00:04:01.995Z,9.61
2024-03-03T00:06:29.704Z,9.62
2024-03-03T00:08:57.366Z,9.61
2024-03-03T00:11:25.046Z,9.61
2024-03-03T00:13:52.681Z,9.61
2024-03-03T00:16:20.381Z,9.61
2024-03-03T00:18:47.927Z,9.61
2024-03-03T00:21:15.665Z,9.62
2024-03-03T00:23:43.230Z,9.60
2024-03-03T00:26:10.897Z,9.60
2024-03-03T00:28:38.444Z,9.60
2024-03-03T00:31:06.032Z,9.57
2024-03-03T00:33:33.628Z,9.55
2024-03-03T00:36:01.325Z,9.52
2024-03-03T00:38:28.891Z,9.50
2024-03-03T00:40:56.656Z,9.49
2024-03-03T00:43:24.519Z,9.49
2024-03-03T00:45:52.211Z,9.49
2024-03-03T00:48:20.157Z,9.45
2024-03-03T00:50:47.814Z,9.37
2024-03-03T00:53:15.488Z,9.30
2024-03-03T00:55:43.037Z,9.22
2024-03-03T00:58:10.739Z,9.13
2024-03-03T01:00:38.396Z,9.06
2024-03-03T01:03:06.038Z,9.01
2024-03-03T01:05:33.587Z,8.97
2024-03-03T01:08:01.147Z,8.96
2024-03-03T01:10:29.114Z,8.98
2024-03-03T01:12:56.818Z,9.00
2024-03-03T01:15:24.527Z,9.04
2024-03-03T01:17:52.191Z,9.08
2024-03-03T01:20:19.896Z,9.11
2024-03-03T01:22:47.729Z,9.13
2024-03-03T01:25:15.389Z,9.17
2024-03-03T01:27:43.194Z,9.17
2024-03-03T01:30:11.122Z,9.16
2024-03-03T01:32:38.716Z,9.13
2024-03-03T01:35:06.459Z,9.11
2024-03-03T01:37:33.893Z,9.10
2024-03-03T01:40:01.664Z,9.07
2024-03-03T01:42:29.325Z,9.04
2024-03-03T01:44:56.913Z,9.01
2024-03-03T01:47:24.595Z,8.97
2024-03-03T01:49:52.229Z,8.93
2024-03-03T01:52:19.830Z,8.87
2024-03-03T01:54:47.659Z,8.80
2024-03-03T01:57:15.708Z,8.75
2024-03-03T01:59:43.360Z,8.71
2024-03-03T02:02:11.060Z,8.70
2024-03-03T02:04:38.796Z,8.71
2024-03-03T02:07:06.351Z,8.70
2024-03-03T02:09:33.914Z,8.69
2024-03-03T02:12:01.574Z,8.67
2024-03-03T02:14:29.240Z,8.63
2024-03-03T02:16:57.211Z,8.58
2024-03-03T02:19:25.064Z,8.55
2024-03-03T02:21:53.006Z,8.53
2024-03-03T02:24:20.813Z,8.53
2024-03-03T02:26:48.355Z,8.53
2024-03-03T02:29:15.926Z,8.53
2024-03-03T02:31:43.592Z,8.53
2024-03-03T02:34:11.186Z,8.52
2024-03-03T02:36:39.294Z,8.53
2024-03-03T02:39:06.977Z,8.54
2024-03-03T02:41:34.638Z,8.56
2024-03-03T02:44:02.188Z,8.58
2024-03-03T02:46:29.923Z,8.58
2024-03-03T02:48:57.640Z,8.57
2024-03-03T02:51:25.284Z,8.55
2024-03-03T02:53:53.152Z,8.54
2024-03-03T02:56:20.814Z,8.54
2024-03-03T02:58:48.392Z,8.56
2024-03-03T03:01:16.086Z,8.59
2024-03-03T03:03:43.821Z,8.61
2024-03-03T03:06:11.574Z,8.61
2024-03-03T03:08:39.135Z,8.57
2024-03-03T03:11:06.920Z,8.54
2024-03-03T03:13:34.960Z,8.51
2024-03-03T03:16:02.798Z,8.48
2024-03-03T03:18:30.688Z,8.44
2024-03-03T03:20:58.246Z,8.39
2024-03-03T03:23:25.916Z,8.29
2024-03-03T03:25:53.469Z,8.15
2024-03-03T03:28:21.228Z,8.05
2024-03-03T03:30:48.919Z,7.95
2024-03-03T03:33:16.557Z,7.89
2024-03-03T03:35:44.119Z,7.82
2024-03-03T03:38:11.782Z,7.76
2024-03-03T03:40:39.340Z,7.71
2024-03-03T03:43:07.176Z,7.67
2024-03-03T03:45:34.870Z,7.62
2024-03-03T03:48:02.553Z,7.60
2024-03-03T03:50:30.187Z,7.55
2024-03-03T03:52:57.869Z,7.49
2024-03-03T03:55:25.435Z,7.41
2024-03-03T03:57:53.589Z,7.37
2024-03-03T04:00:21.242Z,7.35
2024-03-03T04:02:48.929Z,7.35
2024-03-03T04:05:16.503Z,7.38
2024-03-03T04:07:44.229Z,7.38
2024-03-03T04:10:11.826Z,7.36
2024-03-03T04:12:39.551Z,7.35
2024-03-03T04:15:07.217Z,7.35
2024-03-03T04:17:34.692Z,7.33
2024-03-03T04:20:02.230Z,7.32
2024-03-03T04:22:30.100Z,7.29
2024-03-03T04:24:57.801Z,7.26
2024-03-03T04:27:25.416Z,7.20
2024-03-03T04:29:53.095Z,7.14
2024-03-03T04:32:20.741Z,7.09
2024-03-03T04:34:48.304Z,7.07
2024-03-03T04:37:16.087Z,7.08
2024-03-03T04:39:43.845Z,7.11
2024-03-03T04:42:11.488Z,7.11
2024-03-03T04:44:39.461Z,7.10
2024-03-03T04:47:07.231Z,7.07
2024-03-03T04:49:34.883Z,7.05
2024-03-03T04:52:02.476Z,7.02
2024-03-03T04:54:30.009Z,7.00
2024-03-03T04:56:57.665Z,6.97
2024-03-03T04:59:25.225Z,6.92
2024-03-03T05:01:52.881Z,6.86
2024-03-03T05:04:20.843Z,6.79
2024-03-03T05:06:49.152Z,6.73
2024-03-03T05:09:16.904Z,6.69
2024-03-03T05:11:44.562Z,6.65
2024-03-03T05:14:12.131Z,6.63
2024-03-03T05:16:39.793Z,6.61
2024-03-03T05:19:07.404Z,6.60
2024-03-03T05:21:35.108Z,6.58
2024-03-03T05:24:02.973Z,6.56
2024-03-03T05:26:30.632Z,6.55
2024-03-03T05:28:58.290Z,6.54
2024-03-03T05:31:25.869Z,6.54
2024-03-03T05:33:53.424Z,6.52
2024-03-03T05:36:21.088Z,6.50
2024-03-03T05:38:48.627Z,6.49
2024-03-03T05:41:16.294Z,6.50
2024-03-03T05:43:43.852Z,6.54
2024-03-03T05:46:11.895Z,6.59
2024-03-03T05:48:39.624Z,6.66
2024-03-03T05:51:07.348Z,6.73
2024-03-03T05:53:34.928Z,6.78
2024-03-03T05:56:02.477Z,6.82
2024-03-03T05:58:30.175Z,6.86
2024-03-03T06:00:57.859Z,6.90
2024-03-03T06:03:25.659Z,6.95
2024-03-03T06:05:53.218Z,7.00
2024-03-03T06:08:20.882Z,7.05
2024-03-03T06:10:48.473Z,7.16
2024-03-03T06:13:16.216Z,7.36
2024-03-03T06:15:43.975Z,7.68
2024-03-03T06:18:11.566Z,8.03
2024-03-03T06:20:39.110Z,8.41
2024-03-03T06:23:06.648Z,8.72
2024-03-03T06:25:34.513Z,8.99
2024-03-03T06:28:02.221Z,9.18
2024-03-03T06:30:29.760Z,9.31
2024-03-03T06:32:57.544Z,9.35
2024-03-03T06:35:25.256Z,9.33
2024-03-03T06:37:52.924Z,9.29
2024-03-03T06:40:20.514Z,9.27
2024-03-03T06:42:48.187Z,9.27
2024-03-03T06:45:15.804Z,9.36
2024-03-03T06:47:43.320Z,9.51
2024-03-03T06:50:10.922Z,9.70
2024-03-03T06:52:38.488Z,10.23
2024-03-03T06:55:06.193Z,10.93
2024-03-03T06:57:33.598Z,11.46
2024-03-03T07:00:01.265Z,11.87
2024-03-03T07:02:28.922Z,12.35
2024-03-03T07:04:56.511Z,12.84
2024-03-03T07:07:24.206Z,13.32
2024-03-03T07:09:51.844Z,13.79
2024-03-03T07:12:19.874Z,14.24
2024-03-03T07:14:47.538Z,14.50
2024-03-03T07:17:15.214Z,14.53
2024-03-03T07:19:42.759Z,14.71
2024-03-03T07:22:10.364Z,15.11
2024-03-03T07:24:38.400Z,15.63
2024-03-03T07:27:05.948Z,16.03
2024-03-03T07:29:33.628Z,16.05
2024-03-03T07:32:01.579Z,15.96
2024-03-03T07:34:29.264Z,16.24
2024-03-03T07:36:56.821Z,16.91
2024-03-03T07:39:24.470Z,17.45
2024-03-03T07:41:52.018Z,17.76
2024-03-03T07:44:19.577Z,18.25
2024-03-03T07:46:47.142Z,18.56
2024-03-03T07:49:14.705Z,18.93
2024-03-03T07:51:42.268Z,19.48
2024-03-03T07:54:10.244Z,20.15
2024-03-03T07:56:37.891Z,20.74
2024-03-03T07:59:05.549Z,21.08
2024-03-03T08:01:33.165Z,21.37
2024-03-03T08:04:01.022Z,21.74
2024-03-03T08:06:28.640Z,22.37
2024-03-03T08:08:56.298Z,22.95
2024-03-03T08:11:23.864Z,23.47
2024-03-03T08:13:51.727Z,23.98
2024-03-03T08:16:19.349Z,24.63
2024-03-03T08:18:47.178Z,25.01
2024-03-03T08:21:14.924Z,25.16
2024-03-03T08:23:42.273Z,25.39
2024-03-03T08:26:09.967Z,25.63
2024-03-03T08:28:37.495Z,25.49
2024-03-03T08:31:05.190Z,25.48
2024-03-03T08:33:33.116Z,25.74
2024-03-03T08:36:00.715Z,26.03
2024-03-03T08:38:28.442Z,26.09
2024-03-03T08:40:56.106Z,26.18
2024-03-03T08:43:23.757Z,26.16
2024-03-03T08:45:51.550Z,26.30
2024-03-03T08:48:19.089Z,26.41
2024-03-03T08:50:46.759Z,26.49
2024-03-03T08:53:14.415Z,26.30
2024-03-03T08:55:42.279Z,26.03
2024-03-03T08:58:09.925Z,25.89
2024-03-03T09:00:37.732Z,25.76
2024-03-03T09:03:05.366Z,25.74
2024-03-03T09:05:32.935Z,25.52
2024-03-03T09:08:00.736Z,25.82
2024-03-03T09:10:28.411Z,26.22
2024-03-03T09:12:56.264Z,26.76
2024-03-03T09:15:24.312Z,27.37
2024-03-03T09:17:51.885Z,27.88
2024-03-03T09:20:19.508Z,28.37
2024-03-03T09:22:47.167Z,28.91
2024-03-03T09:25:14.791Z,29.49
2024-03-03T09:27:42.423Z,29.90
2024-03-03T09:30:10.166Z,29.88
2024-03-03T09:32:38.049Z,29.94
2024-03-03T09:35:05.887Z,30.07
2024-03-03T09:37:33.860Z,30.32
2024-03-03T09:40:01.600Z,30.62
2024-03-03T09:42:29.417Z,30.70
2024-03-03T09:44:56.946Z,30.70
2024-03-03T09:47:24.503Z,30.49
2024-03-03T09:49:52.175Z,30.37
2024-03-03T09:52:19.769Z,30.52
2024-03-03T09:54:47.622Z,30.90
2024-03-03T09:57:15.278Z,31.18
2024-03-03T09:59:42.955Z,31.26
2024-03-03T10:02:11.003Z,31.31
2024-03-03T10:04:38.764Z,31.46
2024-03-03T10:07:06.446Z,31.63
2024-03-03T10:09:33.975Z,31.58
2024-03-03T10:12:01.640Z,31.31
2024-03-03T10:14:29.420Z,31.32
2024-03-03T10:16:57.062Z,31.63
2024-03-03T10:19:24.759Z,31.96
2024-03-03T10:21:52.847Z,32.23
2024-03-03T10:24:22.330Z,32.12
2024-03-03T10:26:50.495Z,31.76
2024-03-03T10:29:18.038Z,32.09
2024-03-03T10:31:45.588Z,32.61
2024-03-03T10:34:13.176Z,32.85
2024-03-03T10:36:40.814Z,32.99
2024-03-03T10:39:08.472Z,33.20
2024-03-03T10:41:36.442Z,33.51
2024-03-03T10:44:03.997Z,33.37
2024-03-03T10:46:31.694Z,33.03
2024-03-03T10:48:59.429Z,32.83
2024-03-03T10:51:27.092Z,32.54
2024-03-03T10:53:54.653Z,32.39
2024-03-03T10:56:22.345Z,32.14
2024-03-03T10:58:49.877Z,31.63
2024-03-03T11:01:17.653Z,31.54
2024-03-03T11:03:45.728Z,31.81
2024-03-03T11:06:13.380Z,30.86
2024-03-03T11:08:40.834Z,29.03
2024-03-03T11:11:08.463Z,28.54
2024-03-03T11:13:36.150Z,29.49
2024-03-03T11:16:03.869Z,29.71
2024-03-03T11:18:31.679Z,30.72
2024-03-03T11:20:59.238Z,31.59
2024-03-03T11:23:26.884Z,31.79
2024-03-03T11:25:54.451Z,31.37
2024-03-03T11:28:22.152Z,30.66
2024-03-03T11:30:49.802Z,30.82
2024-03-03T11:33:17.597Z,31.03
2024-03-03T11:35:45.202Z,31.12
2024-03-03T11:38:12.925Z,30.37
2024-03-03T11:40:40.791Z,30.20
2024-03-03T11:43:08.522Z,29.56
2024-03-03T11:45:36.562Z,28.45
2024-03-03T11:48:04.260Z,27.29
2024-03-03T11:50:31.822Z,26.71
2024-03-03T11:52:59.445Z,25.91
2024-03-03T11:55:27.199Z,24.86
2024-03-03T11:57:55.143Z,24.01
2024-03-03T12:00:22.838Z,23.62
2024-03-03T12:02:50.510Z,23.84
2024-03-03T12:05:18.162Z,23.49
2024-03-03T12:07:45.619Z,22.90
2024-03-03T12:10:13.378Z,22.17
2024-03-03T12:12:41.045Z,21.54
2024-03-03T12:15:08.704Z,21.59
2024-03-03T12:17:36.312Z,21.59
2024-03-03T12:20:03.929Z,21.38
2024-03-03T12:22:31.557Z,21.08
2024-03-03T12:24:59.281Z,20.98
2024-03-03T12:27:26.833Z,20.96
2024-03-03T12:29:54.781Z,21.30
2024-03-03T12:32:22.354Z,21.58
2024-03-03T12:34:50.007Z,21.45
2024-03-03T12:37:17.603Z,21.48
2024-03-03T12:39:45.370Z,21.74
2024-03-03T12:42:12.990Z,21.71
2024-03-03T12:44:40.640Z,21.50
2024-03-03T12:47:08.416Z,21.28
2024-03-03T12:49:35.972Z,20.95
2024-03-03T12:52:03.977Z,20.56
2024-03-03T12:54:31.602Z,20.17
2024-03-03T12:56:59.374Z,20.00
2024-03-03T12:59:27.024Z,19.94
2024-03-03T13:01:54.830Z,19.78
2024-03-03T13:04:22.598Z,19.51
2024-03-03T13:06:50.495Z,19.26
2024-03-03T13:09:18.182Z,19.05
2024-03-03T13:11:46.164Z,19.03
2024-03-03T13:14:13.716Z,19.59
2024-03-03T13:16:41.464Z,21.29
2024-03-03T13:19:09.328Z,23.37
2024-03-03T13:21:37.131Z,25.14
2024-03-03T13:24:04.678Z,25.33
2024-03-03T13:26:32.333Z,24.27
2024-03-03T13:28:59.900Z,23.40
2024-03-03T13:31:27.874Z,22.99
2024-03-03T13:33:55.547Z,22.59
2024-03-03T13:36:23.192Z,22.07
2024-03-03T13:38:50.847Z,21.32
2024-03-03T13:41:18.401Z,20.56
2024-03-03T13:43:46.063Z,20.02
2024-03-03T13:46:13.812Z,19.66
2024-03-03T13:48:41.491Z,19.37
2024-03-03T13:51:09.354Z,19.12
2024-03-03T13:53:37.543Z,19.04
2024-03-03T13:56:05.093Z,18.98
2024-03-03T13:58:32.786Z,18.75
2024-03-03T14:01:00.479Z,18.52
2024-03-03T14:03:28.291Z,18.23
2024-03-03T14:05:55.838Z,17.98
2024-03-03T14:08:23.502Z,17.75
2024-03-03T14:10:51.223Z,17.59
2024-03-03T14:13:19.053Z,17.49
2024-03-03T14:15:47.078Z,17.42
2024-03-03T14:18:14.912Z,17.36
2024-03-03T14:20:42.542Z,17.34
2024-03-03T14:23:10.180Z,17.38
2024-03-03T14:25:37.908Z,17.40
2024-03-03T14:28:12.460Z,17.41
2024-03-03T14:30:41.596Z,17.42
2024-03-03T14:33:09.440Z,17.43
2024-03-03T14:35:37.451Z,17.42
2024-03-03T14:38:05.066Z,17.39
2024-03-03T14:40:32.751Z,17.40
2024-03-03T14:43:00.666Z,17.45
2024-03-03T14:45:28.250Z,17.47
2024-03-03T14:47:56.049Z,17.47
2024-03-03T14:50:23.688Z,17.46
2024-03-03T14:52:51.358Z,17.47
2024-03-03T14:55:19.041Z,17.49
2024-03-03T14:57:46.516Z,17.45
2024-03-03T15:00:14.467Z,17.41
2024-03-03T15:02:42.146Z,17.32
2024-03-03T15:05:09.968Z,17.17
2024-03-03T15:07:37.790Z,16.99
2024-03-03T15:10:05.501Z,16.80
2024-03-03T15:12:33.160Z,16.66
2024-03-03T15:15:00.807Z,16.54
2024-03-03T15:17:28.379Z,16.44
2024-03-03T15:19:56.038Z,16.39
2024-03-03T15:22:24.049Z,16.34
2024-03-03T15:24:51.785Z,16.29
2024-03-03T15:27:19.427Z,16.25
2024-03-03T15:29:47.183Z,16.22
2024-03-03T15:32:14.859Z,16.19
2024-03-03T15:34:42.574Z,16.16
2024-03-03T15:37:10.399Z,16.15
2024-03-03T15:39:39.909Z,16.10
2024-03-03T15:42:08.471Z,15.98
2024-03-03T15:44:36.043Z,15.87
2024-03-03T15:47:03.686Z,15.76
2024-03-03T15:49:31.335Z,15.64
2024-03-03T15:51:59.169Z,15.51
2024-03-03T15:54:26.878Z,15.39
2024-03-03T15:56:54.538Z,15.28
2024-03-03T15:59:22.114Z,15.17
2024-03-03T16:01:49.814Z,15.04
2024-03-03T16:04:17.842Z,14.91
2024-03-03T16:06:45.697Z,14.78
2024-03-03T16:09:13.413Z,14.64
2024-03-03T16:11:41.229Z,14.52
2024-03-03T16:14:08.787Z,14.42
2024-03-03T16:16:36.672Z,14.33
2024-03-03T16:19:04.341Z,14.26
2024-03-03T16:21:31.871Z,14.22
2024-03-03T16:23:59.538Z,14.19
2024-03-03T16:26:27.096Z,14.16
2024-03-03T16:28:54.786Z,14.14
2024-03-03T16:31:22.342Z,14.12
2024-03-03T16:33:49.939Z,14.07
2024-03-03T16:36:18.420Z,14.01
2024-03-03T16:38:46.229Z,13.97
2024-03-03T16:41:13.987Z,13.92
2024-03-03T16:43:42.015Z,13.87
2024-03-03T16:46:09.864Z,13.81
2024-03-03T16:48:37.682Z,13.71
2024-03-03T16:51:06.882Z,13.61
2024-03-03T16:53:34.753Z,13.53
2024-03-03T16:56:02.408Z,13.44
2024-03-03T16:58:30.049Z,13.37
2024-03-03T17:00:57.907Z,13.35
2024-03-03T17:03:25.510Z,13.33
2024-03-03T17:05:53.473Z,13.30
2024-03-03T17:08:21.027Z,13.29
2024-03-03T17:10:48.730Z,13.29
2024-03-03T17:13:16.508Z,13.28
2024-03-03T17:15:44.227Z,13.26
2024-03-03T17:18:12.081Z,13.22
2024-03-03T17:20:39.854Z,13.17
2024-03-03T17:23:07.413Z,13.12
2024-03-03T17:25:35.053Z,13.06
2024-03-03T17:28:02.751Z,13.00
2024-03-03T17:30:30.506Z,12.92
2024-03-03T17:32:58.089Z,12.85
2024-03-03T17:35:25.821Z,12.77
2024-03-03T17:37:53.375Z,12.72
2024-03-03T17:40:21.006Z,12.67
2024-03-03T17:42:48.762Z,12.63
2024-03-03T17:45:16.888Z,12.62
2024-03-03T17:47:44.234Z,12.60
2024-03-03T17:50:11.901Z,12.57
2024-03-03T17:52:39.500Z,12.56
2024-03-03T17:55:07.320Z,12.57
2024-03-03T17:57:34.979Z,12.57
2024-03-03T18:00:02.682Z,12.57
2024-03-03T18:02:30.403Z,12.58
2024-03-03T18:04:57.959Z,12.57
2024-03-03T18:07:25.676Z,12.57
2024-03-03T18:09:53.305Z,12.58
2024-03-03T18:12:23.008Z,12.59
2024-03-03T18:14:52.022Z,12.61
2024-03-03T18:17:19.655Z,12.61
2024-03-03T18:19:47.206Z,12.61
2024-03-03T18:22:14.878Z,12.60
2024-03-03T18:24:42.435Z,12.59
2024-03-03T18:27:10.094Z,12.59
2024-03-03T18:29:38.102Z,12.58
2024-03-03T18:32:05.828Z,12.56
2024-03-03T18:34:33.436Z,12.53
2024-03-03T18:37:01.126Z,12.49
2024-03-03T18:39:28.907Z,12.44
2024-03-03T18:41:56.466Z,12.39
2024-03-03T18:44:24.055Z,12.34
2024-03-03T18:46:51.877Z,12.29
2024-03-03T18:49:20.010Z,12.23
2024-03-03T18:51:47.625Z,12.18
2024-03-03T18:54:15.293Z,12.15
2024-03-03T18:56:42.841Z,12.12
2024-03-03T18:59:10.585Z,12.10
2024-03-03T19:01:38.302Z,12.09
2024-03-03T19:04:06.068Z,12.07
2024-03-03T19:06:33.746Z,12.05
2024-03-03T19:09:01.786Z,12.01
2024-03-03T19:11:29.468Z,11.97
2024-03-03T19:13:57.107Z,11.96
2024-03-03T19:16:24.809Z,11.97
2024-03-03T19:18:52.546Z,11.99
2024-03-03T19:21:20.292Z,11.99
2024-03-03T19:23:47.757Z,11.96
2024-03-03T19:26:15.408Z,11.93
2024-03-03T19:28:43.069Z,11.89
2024-03-03T19:31:11.089Z,11.87
2024-03-03T19:33:38.768Z,11.84
2024-03-03T19:36:06.473Z,11.81
2024-03-03T19:38:34.253Z,11.78
2024-03-03T19:41:02.015Z,11.77
2024-03-03T19:43:29.791Z,11.75
2024-03-03T19:45:57.551Z,11.75
2024-03-03T19:48:25.173Z,11.76
2024-03-03T19:50:52.845Z,11.77
2024-03-03T19:53:20.814Z,11.77
2024-03-03T19:55:48.481Z,11.76
2024-03-03T19:58:16.032Z,11.75
2024-03-03T20:00:43.707Z,11.75
2024-03-03T20:03:11.254Z,11.76
2024-03-03T20:05:38.813Z,11.76
2024-03-03T20:08:06.800Z,11.74
2024-03-03T20:10:34.657Z,11.72
2024-03-03T20:13:02.674Z,11.70
2024-03-03T20:15:30.272Z,11.69
2024-03-03T20:17:57.869Z,11.69
2024-03-03T20:20:25.746Z,11.71
2024-03-03T20:22:53.263Z,11.72
2024-03-03T20:25:21.071Z,11.72
2024-03-03T20:27:48.576Z,11.73
2024-03-03T20:30:16.191Z,11.73
2024-03-03T20:32:44.275Z,11.74
2024-03-03T20:35:11.880Z,11.74
2024-03-03T20:37:39.609Z,11.73
2024-03-03T20:40:07.355Z,11.72
2024-03-03T20:42:35.157Z,11.71
2024-03-03T20:45:02.830Z,11.71
2024-03-03T20:47:30.728Z,11.70
2024-03-03T20:49:58.267Z,11.69
2024-03-03T20:52:26.043Z,11.67
2024-03-03T20:54:53.707Z,11.66
2024-03-03T20:57:21.754Z,11.64
2024-03-03T20:59:51.032Z,11.63
2024-03-03T21:02:18.816Z,11.64
2024-03-03T21:04:46.614Z,11.63
2024-03-03T21:07:14.191Z,11.63
2024-03-03T21:09:42.004Z,11.62
2024-03-03T21:12:09.569Z,11.60
2024-03-03T21:14:37.229Z,11.57
2024-03-03T21:17:05.107Z,11.54
2024-03-03T21:19:32.886Z,11.51
2024-03-03T21:22:00.570Z,11.47
2024-03-03T21:24:28.283Z,11.44
2024-03-03T21:26:55.839Z,11.40
2024-03-03T21:29:23.401Z,11.36
2024-03-03T21:31:51.078Z,11.35
2024-03-03T21:34:18.739Z,11.32
2024-03-03T21:36:46.698Z,11.30
2024-03-03T21:39:14.381Z,11.27
2024-03-03T21:41:41.926Z,11.25
2024-03-03T21:44:09.489Z,11.22
2024-03-03T21:46:37.183Z,11.18
2024-03-03T21:49:04.939Z,11.14
2024-03-03T21:51:32.568Z,11.12
2024-03-03T21:54:00.227Z,11.09
2024-03-03T21:56:27.781Z,11.05
2024-03-03T21:58:55.343Z,11.01
2024-03-03T22:01:23.069Z,10.94
2024-03-03T22:03:50.690Z,10.88
2024-03-03T22:06:18.352Z,10.81
2024-03-03T22:08:45.794Z,10.74
2024-03-03T22:11:13.511Z,10.64
2024-03-03T22:13:41.211Z,10.60
2024-03-03T22:16:09.128Z,10.54
2024-03-03T22:18:37.049Z,10.45
2024-03-03T22:21:04.709Z,10.35
2024-03-03T22:23:32.370Z,10.26
2024-03-03T22:25:59.928Z,10.16
2024-03-03T22:28:27.556Z,10.06
2024-03-03T22:30:55.395Z,9.96
2024-03-03T22:33:23.018Z,9.86
2024-03-03T22:35:50.584Z,9.78
2024-03-03T22:38:18.243Z,9.70
2024-03-03T22:40:46.220Z,9.63
2024-03-03T22:43:13.905Z,9.58
2024-03-03T22:45:41.553Z,9.54
2024-03-03T22:48:09.088Z,9.49
2024-03-03T22:50:36.646Z,9.42
2024-03-03T22:53:04.313Z,9.36
2024-03-03T22:55:32.015Z,9.30
2024-03-03T22:57:59.908Z,9.23
2024-03-03T23:00:27.605Z,9.18
2024-03-03T23:02:55.490Z,9.13
2024-03-03T23:05:23.137Z,9.08
2024-03-03T23:07:50.598Z,9.03
2024-03-03T23:10:18.337Z,8.98
2024-03-03T23:12:46.009Z,8.93
2024-03-03T23:15:13.566Z,8.90
2024-03-03T23:17:41.281Z,8.89
2024-03-03T23:20:08.906Z,8.86
2024-03-03T23:22:36.624Z,8.84
2024-03-03T23:25:04.648Z,8.81
2024-03-03T23:27:32.289Z,8.77
2024-03-03T23:30:00.057Z,8.72
2024-03-03T23:32:27.651Z,8.70
2024-03-03T23:34:55.376Z,8.66
2024-03-03T23:37:23.023Z,8.62
2024-03-03T23:39:50.699Z,8.57
2024-03-03T23:42:18.251Z,8.52
2024-03-03T23:44:45.814Z,8.47
2024-03-03T23:47:13.687Z,8.41
2024-03-03T23:49:41.386Z,8.33
2024-03-03T23:52:09.012Z,8.28
2024-03-03T23:54:36.662Z,8.25
2024-03-03T23:57:04.328Z,8.22
2024-03-03T23:59:31.905Z,8.20
